sensor_id;sensor_type;location;lat;lon;timestamp;temperature;humidity
11965;DHT22;6042;41.326;19.826;2023-03-20T00:02:23;10.00;99.90
11965;DHT22;6042;41.326;19.826;2023-03-20T00:04:52;10.10;99.90
11965;DHT22;6042;41.326;19.826;2023-03-20T00:07:22;10.00;99.90
11965;DHT22;6042;41.326;19.826;2023-03-20T00:09:50;9.90;99.90
11965;DHT22;6042;41.326;19.826;2023-03-20T00:12:23;9.90;99.90
11965;DHT22;6042;41.326;19.826;2023-03-20T00:14:52;9.80;99.90
11965;DHT22;6042;41.326;19.826;2023-03-20T00:17:20;9.70;99.90
11965;DHT22;6042;41.326;19.826;2023-03-20T00:19:49;9.70;99.90
11965;DHT22;6042;41.326;19.826;2023-03-20T00:22:17;9.70;99.90
11965;DHT22;6042;41.326;19.826;2023-03-20T00:24:47;9.80;99.90
11965;DHT22;6042;41.326;19.826;2023-03-20T00:27:16;9.70;99.90
11965;DHT22;6042;41.326;19.826;2023-03-20T00:29:45;9.70;99.90
11965;DHT22;6042;41.326;19.826;2023-03-20T00:32:14;9.70;99.90
11965;DHT22;6042;41.326;19.826;2023-03-20T00:34:42;9.80;99.90
11965;DHT22;6042;41.326;19.826;2023-03-20T00:37:12;9.90;99.90
11965;DHT22;6042;41.326;19.826;2023-03-20T00:39:40;9.90;99.90
11965;DHT22;6042;41.326;19.826;2023-03-20T00:42:18;9.90;99.90
11965;DHT22;6042;41.326;19.826;2023-03-20T00:44:49;9.90;99.90
11965;DHT22;6042;41.326;19.826;2023-03-20T00:47:23;9.80;99.90
11965;DHT22;6042;41.326;19.826;2023-03-20T00:49:53;9.80;99.90
11965;DHT22;6042;41.326;19.826;2023-03-20T00:52:24;9.70;99.90
11965;DHT22;6042;41.326;19.826;2023-03-20T00:54:53;9.70;99.90
11965;DHT22;6042;41.326;19.826;2023-03-20T00:57:24;9.70;99.90
11965;DHT22;6042;41.326;19.826;2023-03-20T00:59:57;9.80;99.90
11965;DHT22;6042;41.326;19.826;2023-03-20T01:02:27;9.80;99.90
11965;DHT22;6042;41.326;19.826;2023-03-20T01:04:59;9.90;99.90
11965;DHT22;6042;41.326;19.826;2023-03-20T01:07:27;9.90;99.90
11965;DHT22;6042;41.326;19.826;2023-03-20T01:09:55;9.80;99.90
11965;DHT22;6042;41.326;19.826;2023-03-20T01:12:25;9.80;99.90
11965;DHT22;6042;41.326;19.826;2023-03-20T01:14:56;9.80;99.90
11965;DHT22;6042;41.326;19.826;2023-03-20T01:17:26;9.90;99.90
11965;DHT22;6042;41.326;19.826;2023-03-20T01:19:55;9.80;99.90
11965;DHT22;6042;41.326;19.826;2023-03-20T01:22:23;9.80;99.90
11965;DHT22;6042;41.326;19.826;2023-03-20T01:24:52;9.90;99.90
11965;DHT22;6042;41.326;19.826;2023-03-20T01:27:20;9.90;99.90
11965;DHT22;6042;41.326;19.826;2023-03-20T01:29:51;9.90;99.90
11965;DHT22;6042;41.326;19.826;2023-03-20T01:32:19;9.90;99.90
11965;DHT22;6042;41.326;19.826;2023-03-20T01:34:49;9.80;99.90
11965;DHT22;6042;41.326;19.826;2023-03-20T01:37:23;9.80;99.90
11965;DHT22;6042;41.326;19.826;2023-03-20T01:39:55;9.80;99.90
11965;DHT22;6042;41.326;19.826;2023-03-20T01:42:25;9.80;99.90
11965;DHT22;6042;41.326;19.826;2023-03-20T01:44:55;9.80;99.90
11965;DHT22;6042;41.326;19.826;2023-03-20T01:47:25;9.70;99.90
11965;DHT22;6042;41.326;19.826;2023-03-20T01:50:22;9.80;99.90
11965;DHT22;6042;41.326;19.826;2023-03-20T01:53:15;9.70;99.90
11965;DHT22;6042;41.326;19.826;2023-03-20T01:55:53;9.70;99.90
11965;DHT22;6042;41.326;19.826;2023-03-20T01:58:30;9.80;99.90
11965;DHT22;6042;41.326;19.826;2023-03-20T02:01:03;9.90;99.90
11965;DHT22;6042;41.326;19.826;2023-03-20T02:03:32;9.90;99.90
11965;DHT22;6042;41.326;19.826;2023-03-20T02:06:30;9.90;99.90
11965;DHT22;6042;41.326;19.826;2023-03-20T02:09:16;9.90;99.90
11965;DHT22;6042;41.326;19.826;2023-03-20T02:11:46;9.80;99.90
11965;DHT22;6042;41.326;19.826;2023-03-20T02:14:19;9.90;99.90
11965;DHT22;6042;41.326;19.826;2023-03-20T02:16:54;10.00;99.90
11965;DHT22;6042;41.326;19.826;2023-03-20T02:19:42;10.00;99.90
11965;DHT22;6042;41.326;19.826;2023-03-20T02:22:50;10.00;99.90
11965;DHT22;6042;41.326;19.826;2023-03-20T02:25:57;10.10;99.90
11965;DHT22;6042;41.326;19.826;2023-03-20T02:32:04;10.00;99.90
11965;DHT22;6042;41.326;19.826;2023-03-20T02:40:54;10.00;99.90
11965;DHT22;6042;41.326;19.826;2023-03-20T02:43:33;10.00;99.90
11965;DHT22;6042;41.326;19.826;2023-03-20T02:46:12;10.00;99.90
11965;DHT22;6042;41.326;19.826;2023-03-20T02:48:50;9.90;99.90
11965;DHT22;6042;41.326;19.826;2023-03-20T02:51:26;9.90;99.90
11965;DHT22;6042;41.326;19.826;2023-03-20T02:54:05;9.90;99.90
11965;DHT22;6042;41.326;19.826;2023-03-20T02:56:44;10.00;99.90
11965;DHT22;6042;41.326;19.826;2023-03-20T02:59:23;9.90;99.90
11965;DHT22;6042;41.326;19.826;2023-03-20T03:01:57;9.90;99.90
11965;DHT22;6042;41.326;19.826;2023-03-20T03:04:33;9.70;99.90
11965;DHT22;6042;41.326;19.826;2023-03-20T03:07:05;9.70;99.90
11965;DHT22;6042;41.326;19.826;2023-03-20T03:09:39;9.70;99.90
11965;DHT22;6042;41.326;19.826;2023-03-20T03:12:11;9.80;99.90
11965;DHT22;6042;41.326;19.826;2023-03-20T03:14:46;9.70;99.90
11965;DHT22;6042;41.326;19.826;2023-03-20T03:17:18;9.70;99.90
11965;DHT22;6042;41.326;19.826;2023-03-20T03:19:51;9.70;99.90
11965;DHT22;6042;41.326;19.826;2023-03-20T03:22:21;9.80;99.90
11965;DHT22;6042;41.326;19.826;2023-03-20T03:24:53;9.80;99.90
11965;DHT22;6042;41.326;19.826;2023-03-20T03:27:25;9.90;99.90
11965;DHT22;6042;41.326;19.826;2023-03-20T03:29:56;9.90;99.90
11965;DHT22;6042;41.326;19.826;2023-03-20T03:32:29;9.90;99.90
11965;DHT22;6042;41.326;19.826;2023-03-20T03:35:01;9.90;99.90
11965;DHT22;6042;41.326;19.826;2023-03-20T03:37:39;9.80;99.90
11965;DHT22;6042;41.326;19.826;2023-03-20T03:40:17;9.70;99.90
11965;DHT22;6042;41.326;19.826;2023-03-20T03:42:52;9.70;99.90
11965;DHT22;6042;41.326;19.826;2023-03-20T03:45:29;9.70;99.90
11965;DHT22;6042;41.326;19.826;2023-03-20T03:48:04;9.70;99.90
11965;DHT22;6042;41.326;19.826;2023-03-20T03:50:37;9.70;99.90
11965;DHT22;6042;41.326;19.826;2023-03-20T03:53:13;9.70;99.90
11965;DHT22;6042;41.326;19.826;2023-03-20T03:55:49;9.70;99.90
11965;DHT22;6042;41.326;19.826;2023-03-20T03:58:23;9.80;99.90
11965;DHT22;6042;41.326;19.826;2023-03-20T04:00:57;9.80;99.90
11965;DHT22;6042;41.326;19.826;2023-03-20T04:03:31;9.90;99.90
11965;DHT22;6042;41.326;19.826;2023-03-20T04:06:02;9.90;99.90
11965;DHT22;6042;41.326;19.826;2023-03-20T04:08:31;9.90;99.90
11965;DHT22;6042;41.326;19.826;2023-03-20T04:11:02;9.90;99.90
11965;DHT22;6042;41.326;19.826;2023-03-20T04:13:30;10.00;99.90
11965;DHT22;6042;41.326;19.826;2023-03-20T04:15:59;9.80;99.90
11965;DHT22;6042;41.326;19.826;2023-03-20T04:18:29;9.70;99.90
11965;DHT22;6042;41.326;19.826;2023-03-20T04:20:57;9.70;99.90
11965;DHT22;6042;41.326;19.826;2023-03-20T04:23:26;9.60;99.90
11965;DHT22;6042;41.326;19.826;2023-03-20T04:25:56;9.60;99.90
11965;DHT22;6042;41.326;19.826;2023-03-20T04:28:25;9.50;99.90
11965;DHT22;6042;41.326;19.826;2023-03-20T04:31:23;9.60;99.90
11965;DHT22;6042;41.326;19.826;2023-03-20T04:34:16;9.50;99.90
11965;DHT22;6042;41.326;19.826;2023-03-20T04:36:58;9.50;99.90
11965;DHT22;6042;41.326;19.826;2023-03-20T04:39:41;9.60;99.90
11965;DHT22;6042;41.326;19.826;2023-03-20T04:42:10;9.50;99.90
11965;DHT22;6042;41.326;19.826;2023-03-20T04:44:40;9.50;99.90
11965;DHT22;6042;41.326;19.826;2023-03-20T04:47:08;9.30;99.90
11965;DHT22;6042;41.326;19.826;2023-03-20T04:49:41;9.40;99.90
11965;DHT22;6042;41.326;19.826;2023-03-20T04:52:10;9.40;99.90
11965;DHT22;6042;41.326;19.826;2023-03-20T04:54:41;9.30;99.90
11965;DHT22;6042;41.326;19.826;2023-03-20T04:57:10;9.20;99.90
11965;DHT22;6042;41.326;19.826;2023-03-20T04:59:40;9.10;99.90
11965;DHT22;6042;41.326;19.826;2023-03-20T05:02:09;9.10;99.90
11965;DHT22;6042;41.326;19.826;2023-03-20T05:04:41;9.00;99.90
11965;DHT22;6042;41.326;19.826;2023-03-20T05:07:10;8.90;99.90
11965;DHT22;6042;41.326;19.826;2023-03-20T05:10:02;8.80;99.90
11965;DHT22;6042;41.326;19.826;2023-03-20T05:12:37;8.70;99.90
11965;DHT22;6042;41.326;19.826;2023-03-20T05:15:26;8.70;99.90
11965;DHT22;6042;41.326;19.826;2023-03-20T05:18:13;8.70;99.90
11965;DHT22;6042;41.326;19.826;2023-03-20T05:21:13;8.70;99.90
11965;DHT22;6042;41.326;19.826;2023-03-20T05:24:17;8.60;99.90
11965;DHT22;6042;41.326;19.826;2023-03-20T05:27:07;8.60;99.90
11965;DHT22;6042;41.326;19.826;2023-03-20T05:29:50;8.60;99.90
11965;DHT22;6042;41.326;19.826;2023-03-20T05:32:38;8.70;99.90
11965;DHT22;6042;41.326;19.826;2023-03-20T05:35:19;8.70;99.90
11965;DHT22;6042;41.326;19.826;2023-03-20T05:38:11;8.60;99.90
11965;DHT22;6042;41.326;19.826;2023-03-20T05:40:49;8.70;99.90
11965;DHT22;6042;41.326;19.826;2023-03-20T05:43:24;8.80;99.90
11965;DHT22;6042;41.326;19.826;2023-03-20T05:46:13;8.90;99.90
11965;DHT22;6042;41.326;19.826;2023-03-20T05:49:06;9.00;99.90
11965;DHT22;6042;41.326;19.826;2023-03-20T05:51:53;9.20;99.90
11965;DHT22;6042;41.326;19.826;2023-03-20T05:54:29;9.30;99.90
11965;DHT22;6042;41.326;19.826;2023-03-20T05:57:21;9.30;99.90
11965;DHT22;6042;41.326;19.826;2023-03-20T06:00:23;9.40;99.90
11965;DHT22;6042;41.326;19.826;2023-03-20T06:03:12;9.40;99.90
11965;DHT22;6042;41.326;19.826;2023-03-20T06:05:57;9.50;99.90
11965;DHT22;6042;41.326;19.826;2023-03-20T06:08:28;9.60;99.90
11965;DHT22;6042;41.326;19.826;2023-03-20T06:10:59;9.70;99.90
11965;DHT22;6042;41.326;19.826;2023-03-20T06:13:29;9.90;99.90
11965;DHT22;6042;41.326;19.826;2023-03-20T06:15:59;10.10;99.90
11965;DHT22;6042;41.326;19.826;2023-03-20T06:18:28;10.30;99.90
11965;DHT22;6042;41.326;19.826;2023-03-20T06:20:59;10.30;99.90
11965;DHT22;6042;41.326;19.826;2023-03-20T06:23:29;10.50;99.90
11965;DHT22;6042;41.326;19.826;2023-03-20T06:26:00;10.60;99.90
11965;DHT22;6042;41.326;19.826;2023-03-20T06:28:37;10.80;99.90
11965;DHT22;6042;41.326;19.826;2023-03-20T06:31:07;10.90;99.90
11965;DHT22;6042;41.326;19.826;2023-03-20T06:33:36;10.90;99.90
11965;DHT22;6042;41.326;19.826;2023-03-20T06:36:07;10.90;99.90
11965;DHT22;6042;41.326;19.826;2023-03-20T06:38:36;11.10;99.90
11965;DHT22;6042;41.326;19.826;2023-03-20T06:41:10;11.20;99.90
11965;DHT22;6042;41.326;19.826;2023-03-20T06:43:54;11.30;99.90
11965;DHT22;6042;41.326;19.826;2023-03-20T06:46:27;11.40;99.90
11965;DHT22;6042;41.326;19.826;2023-03-20T06:48:57;11.50;99.90
11965;DHT22;6042;41.326;19.826;2023-03-20T06:51:26;11.50;99.90
11965;DHT22;6042;41.326;19.826;2023-03-20T06:53:55;11.70;99.90
11965;DHT22;6042;41.326;19.826;2023-03-20T06:56:26;11.80;99.90
11965;DHT22;6042;41.326;19.826;2023-03-20T06:58:54;11.80;99.90
11965;DHT22;6042;41.326;19.826;2023-03-20T07:01:23;11.70;99.90
11965;DHT22;6042;41.326;19.826;2023-03-20T07:03:52;11.90;99.90
11965;DHT22;6042;41.326;19.826;2023-03-20T07:06:27;12.00;99.90
11965;DHT22;6042;41.326;19.826;2023-03-20T07:08:55;11.90;99.90
11965;DHT22;6042;41.326;19.826;2023-03-20T07:11:24;12.10;99.90
11965;DHT22;6042;41.326;19.826;2023-03-20T07:13:54;12.40;99.90
11965;DHT22;6042;41.326;19.826;2023-03-20T07:16:38;12.50;99.90
11965;DHT22;6042;41.326;19.826;2023-03-20T07:19:06;12.60;99.90
11965;DHT22;6042;41.326;19.826;2023-03-20T07:21:40;12.70;99.90
11965;DHT22;6042;41.326;19.826;2023-03-20T07:24:12;12.90;99.90
11965;DHT22;6042;41.326;19.826;2023-03-20T07:26:40;12.90;99.90
11965;DHT22;6042;41.326;19.826;2023-03-20T07:29:09;13.10;99.90
11965;DHT22;6042;41.326;19.826;2023-03-20T07:31:38;13.10;99.90
11965;DHT22;6042;41.326;19.826;2023-03-20T07:34:14;13.20;99.90
11965;DHT22;6042;41.326;19.826;2023-03-20T07:36:45;13.40;99.90
11965;DHT22;6042;41.326;19.826;2023-03-20T07:39:18;13.40;99.90
11965;DHT22;6042;41.326;19.826;2023-03-20T07:41:57;13.60;99.90
11965;DHT22;6042;41.326;19.826;2023-03-20T07:44:41;13.70;99.90
11965;DHT22;6042;41.326;19.826;2023-03-20T07:47:11;13.50;99.90
11965;DHT22;6042;41.326;19.826;2023-03-20T07:49:39;13.50;99.90
11965;DHT22;6042;41.326;19.826;2023-03-20T07:52:10;13.60;99.90
11965;DHT22;6042;41.326;19.826;2023-03-20T07:54:38;13.80;99.90
11965;DHT22;6042;41.326;19.826;2023-03-20T07:57:07;14.00;99.90
11965;DHT22;6042;41.326;19.826;2023-03-20T07:59:35;14.20;99.90
11965;DHT22;6042;41.326;19.826;2023-03-20T08:02:04;14.30;99.90
11965;DHT22;6042;41.326;19.826;2023-03-20T08:04:32;14.30;99.90
11965;DHT22;6042;41.326;19.826;2023-03-20T08:07:01;14.40;99.90
11965;DHT22;6042;41.326;19.826;2023-03-20T08:09:31;14.40;99.90
11965;DHT22;6042;41.326;19.826;2023-03-20T08:12:01;14.40;99.90
11965;DHT22;6042;41.326;19.826;2023-03-20T08:14:29;14.40;99.90
11965;DHT22;6042;41.326;19.826;2023-03-20T08:16:57;14.50;99.90
11965;DHT22;6042;41.326;19.826;2023-03-20T08:19:41;14.50;99.90
11965;DHT22;6042;41.326;19.826;2023-03-20T08:22:09;14.60;99.90
11965;DHT22;6042;41.326;19.826;2023-03-20T08:24:39;14.70;99.90
11965;DHT22;6042;41.326;19.826;2023-03-20T08:27:08;14.90;99.90
11965;DHT22;6042;41.326;19.826;2023-03-20T08:29:36;15.00;99.90
11965;DHT22;6042;41.326;19.826;2023-03-20T08:32:05;15.20;99.90
11965;DHT22;6042;41.326;19.826;2023-03-20T08:34:33;15.30;99.90
11965;DHT22;6042;41.326;19.826;2023-03-20T08:37:03;15.50;99.90
11965;DHT22;6042;41.326;19.826;2023-03-20T08:39:31;15.60;99.90
11965;DHT22;6042;41.326;19.826;2023-03-20T08:42:02;15.80;99.90
11965;DHT22;6042;41.326;19.826;2023-03-20T08:44:30;15.80;99.90
11965;DHT22;6042;41.326;19.826;2023-03-20T08:46:59;15.90;99.90
11965;DHT22;6042;41.326;19.826;2023-03-20T08:49:28;16.00;99.90
11965;DHT22;6042;41.326;19.826;2023-03-20T08:51:56;15.80;99.90
11965;DHT22;6042;41.326;19.826;2023-03-20T08:54:25;15.80;99.90
11965;DHT22;6042;41.326;19.826;2023-03-20T08:56:53;15.70;99.90
11965;DHT22;6042;41.326;19.826;2023-03-20T08:59:23;15.70;99.90
11965;DHT22;6042;41.326;19.826;2023-03-20T09:01:52;15.80;99.90
11965;DHT22;6042;41.326;19.826;2023-03-20T09:04:20;15.90;99.90
11965;DHT22;6042;41.326;19.826;2023-03-20T09:06:49;15.80;99.90
11965;DHT22;6042;41.326;19.826;2023-03-20T09:09:17;15.80;99.90
11965;DHT22;6042;41.326;19.826;2023-03-20T09:11:47;15.80;99.90
11965;DHT22;6042;41.326;19.826;2023-03-20T09:14:16;15.80;99.90
11965;DHT22;6042;41.326;19.826;2023-03-20T09:16:46;15.70;99.90
11965;DHT22;6042;41.326;19.826;2023-03-20T09:19:14;15.60;99.90
11965;DHT22;6042;41.326;19.826;2023-03-20T09:21:43;15.50;99.90
11965;DHT22;6042;41.326;19.826;2023-03-20T09:24:11;15.50;99.90
11965;DHT22;6042;41.326;19.826;2023-03-20T09:26:40;15.50;99.90
11965;DHT22;6042;41.326;19.826;2023-03-20T09:29:08;15.40;99.90
11965;DHT22;6042;41.326;19.826;2023-03-20T09:31:36;15.40;99.90
11965;DHT22;6042;41.326;19.826;2023-03-20T09:34:06;15.50;99.90
11965;DHT22;6042;41.326;19.826;2023-03-20T09:36:35;15.60;99.90
11965;DHT22;6042;41.326;19.826;2023-03-20T09:39:03;15.70;99.90
11965;DHT22;6042;41.326;19.826;2023-03-20T09:41:32;16.00;99.90
11965;DHT22;6042;41.326;19.826;2023-03-20T09:44:35;16.30;99.90
11965;DHT22;6042;41.326;19.826;2023-03-20T09:47:13;16.40;99.90
11965;DHT22;6042;41.326;19.826;2023-03-20T09:50:00;16.50;99.90
11965;DHT22;6042;41.326;19.826;2023-03-20T09:52:33;16.70;99.90
11965;DHT22;6042;41.326;19.826;2023-03-20T09:55:07;16.80;99.90
11965;DHT22;6042;41.326;19.826;2023-03-20T09:57:40;17.00;99.90
11965;DHT22;6042;41.326;19.826;2023-03-20T10:00:13;16.90;99.90
11965;DHT22;6042;41.326;19.826;2023-03-20T10:02:47;17.00;99.90
11965;DHT22;6042;41.326;19.826;2023-03-20T10:05:22;17.00;99.90
11965;DHT22;6042;41.326;19.826;2023-03-20T10:07:54;17.00;99.90
11965;DHT22;6042;41.326;19.826;2023-03-20T10:10:27;17.20;99.90
11965;DHT22;6042;41.326;19.826;2023-03-20T10:13:07;17.50;99.90
11965;DHT22;6042;41.326;19.826;2023-03-20T10:15:47;17.60;99.90
11965;DHT22;6042;41.326;19.826;2023-03-20T10:18:23;17.70;99.90
11965;DHT22;6042;41.326;19.826;2023-03-20T10:20:58;17.90;99.90
11965;DHT22;6042;41.326;19.826;2023-03-20T10:23:34;17.90;99.90
11965;DHT22;6042;41.326;19.826;2023-03-20T10:26:07;17.90;99.90
11965;DHT22;6042;41.326;19.826;2023-03-20T10:28:42;17.90;99.90
11965;DHT22;6042;41.326;19.826;2023-03-20T10:31:24;17.80;99.90
11965;DHT22;6042;41.326;19.826;2023-03-20T10:34:05;17.70;99.90
11965;DHT22;6042;41.326;19.826;2023-03-20T10:36:48;17.60;99.90
11965;DHT22;6042;41.326;19.826;2023-03-20T10:39:26;17.70;99.90
11965;DHT22;6042;41.326;19.826;2023-03-20T10:42:00;17.60;99.90
11965;DHT22;6042;41.326;19.826;2023-03-20T10:44:34;17.70;99.90
11965;DHT22;6042;41.326;19.826;2023-03-20T10:47:06;17.70;99.90
11965;DHT22;6042;41.326;19.826;2023-03-20T10:49:39;17.60;99.90
11965;DHT22;6042;41.326;19.826;2023-03-20T10:52:13;17.60;99.90
11965;DHT22;6042;41.326;19.826;2023-03-20T10:54:45;17.70;99.90
11965;DHT22;6042;41.326;19.826;2023-03-20T10:57:19;17.70;99.90
11965;DHT22;6042;41.326;19.826;2023-03-20T10:59:50;17.90;99.90
11965;DHT22;6042;41.326;19.826;2023-03-20T11:02:21;18.30;99.90
11965;DHT22;6042;41.326;19.826;2023-03-20T11:04:50;18.60;99.90
11965;DHT22;6042;41.326;19.826;2023-03-20T11:07:24;18.90;99.90
11965;DHT22;6042;41.326;19.826;2023-03-20T11:10:09;18.90;99.90
11965;DHT22;6042;41.326;19.826;2023-03-20T11:12:39;19.00;99.80
11965;DHT22;6042;41.326;19.826;2023-03-20T11:15:23;19.00;99.90
11965;DHT22;6042;41.326;19.826;2023-03-20T11:17:54;19.20;99.80
11965;DHT22;6042;41.326;19.826;2023-03-20T11:20:24;19.40;99.70
11965;DHT22;6042;41.326;19.826;2023-03-20T11:23:00;19.50;98.90
11965;DHT22;6042;41.326;19.826;2023-03-20T11:25:32;19.70;98.80
11965;DHT22;6042;41.326;19.826;2023-03-20T11:28:26;19.70;98.90
11965;DHT22;6042;41.326;19.826;2023-03-20T11:30:59;19.80;98.90
11965;DHT22;6042;41.326;19.826;2023-03-20T11:33:35;19.60;98.70
11965;DHT22;6042;41.326;19.826;2023-03-20T11:36:11;19.60;98.60
11965;DHT22;6042;41.326;19.826;2023-03-20T11:38:45;19.70;98.60
11965;DHT22;6042;41.326;19.826;2023-03-20T11:41:18;19.80;98.50
11965;DHT22;6042;41.326;19.826;2023-03-20T11:43:47;19.80;98.40
11965;DHT22;6042;41.326;19.826;2023-03-20T11:46:15;19.90;98.70
11965;DHT22;6042;41.326;19.826;2023-03-20T11:48:44;19.90;98.80
11965;DHT22;6042;41.326;19.826;2023-03-20T11:51:17;19.90;99.00
11965;DHT22;6042;41.326;19.826;2023-03-20T11:53:59;19.70;99.90
11965;DHT22;6042;41.326;19.826;2023-03-20T11:56:32;19.60;99.90
11965;DHT22;6042;41.326;19.826;2023-03-20T11:59:03;19.40;99.90
11965;DHT22;6042;41.326;19.826;2023-03-20T12:01:39;19.30;99.90
11965;DHT22;6042;41.326;19.826;2023-03-20T12:04:12;19.40;99.90
11965;DHT22;6042;41.326;19.826;2023-03-20T12:06:45;19.40;99.90
11965;DHT22;6042;41.326;19.826;2023-03-20T12:12:35;19.30;99.90
11965;DHT22;6042;41.326;19.826;2023-03-20T12:15:14;19.00;99.90
11965;DHT22;6042;41.326;19.826;2023-03-20T12:17:48;18.60;99.90
11965;DHT22;6042;41.326;19.826;2023-03-20T12:20:33;18.60;99.90
11965;DHT22;6042;41.326;19.826;2023-03-20T12:23:11;18.60;99.90
11965;DHT22;6042;41.326;19.826;2023-03-20T12:25:46;18.80;99.90
11965;DHT22;6042;41.326;19.826;2023-03-20T12:28:21;18.80;99.90
11965;DHT22;6042;41.326;19.826;2023-03-20T12:31:15;19.20;99.90
11965;DHT22;6042;41.326;19.826;2023-03-20T12:33:49;19.30;99.90
11965;DHT22;6042;41.326;19.826;2023-03-20T12:36:24;19.60;99.90
11965;DHT22;6042;41.326;19.826;2023-03-20T12:38:54;19.60;99.90
11965;DHT22;6042;41.326;19.826;2023-03-20T12:41:28;19.70;99.90
11965;DHT22;6042;41.326;19.826;2023-03-20T12:44:18;19.80;99.90
11965;DHT22;6042;41.326;19.826;2023-03-20T12:46:54;20.10;99.90
11965;DHT22;6042;41.326;19.826;2023-03-20T12:49:37;20.30;99.90
11965;DHT22;6042;41.326;19.826;2023-03-20T12:52:14;20.30;99.90
11965;DHT22;6042;41.326;19.826;2023-03-20T12:57:58;20.10;99.80
11965;DHT22;6042;41.326;19.826;2023-03-20T13:00:32;19.70;99.90
11965;DHT22;6042;41.326;19.826;2023-03-20T13:03:17;19.50;99.90
11965;DHT22;6042;41.326;19.826;2023-03-20T13:05:53;19.50;99.90
11965;DHT22;6042;41.326;19.826;2023-03-20T13:11:26;19.10;99.90
11965;DHT22;6042;41.326;19.826;2023-03-20T13:14:01;19.00;99.90
11965;DHT22;6042;41.326;19.826;2023-03-20T13:16:40;18.90;99.90
11965;DHT22;6042;41.326;19.826;2023-03-20T13:19:16;18.60;99.90
11965;DHT22;6042;41.326;19.826;2023-03-20T13:21:53;18.50;99.90
11965;DHT22;6042;41.326;19.826;2023-03-20T13:24:32;18.40;99.90
11965;DHT22;6042;41.326;19.826;2023-03-20T13:27:10;18.40;99.90
11965;DHT22;6042;41.326;19.826;2023-03-20T13:29:49;18.30;99.90
11965;DHT22;6042;41.326;19.826;2023-03-20T13:32:26;18.20;99.90
11965;DHT22;6042;41.326;19.826;2023-03-20T13:35:21;18.20;99.90
11965;DHT22;6042;41.326;19.826;2023-03-20T13:37:54;18.20;99.90
11965;DHT22;6042;41.326;19.826;2023-03-20T13:40:25;18.10;99.90
11965;DHT22;6042;41.326;19.826;2023-03-20T13:43:02;18.10;99.90
11965;DHT22;6042;41.326;19.826;2023-03-20T13:45:36;18.30;99.90
11965;DHT22;6042;41.326;19.826;2023-03-20T13:48:23;18.30;99.90
11965;DHT22;6042;41.326;19.826;2023-03-20T13:50:59;18.20;99.90
11965;DHT22;6042;41.326;19.826;2023-03-20T13:53:33;17.90;99.90
11965;DHT22;6042;41.326;19.826;2023-03-20T13:56:12;17.60;99.90
11965;DHT22;6042;41.326;19.826;2023-03-20T13:58:55;17.50;99.90
11965;DHT22;6042;41.326;19.826;2023-03-20T14:01:37;17.40;99.90
11965;DHT22;6042;41.326;19.826;2023-03-20T14:04:12;17.20;99.90
11965;DHT22;6042;41.326;19.826;2023-03-20T14:06:46;17.20;99.90
11965;DHT22;6042;41.326;19.826;2023-03-20T14:09:30;17.10;99.90
11965;DHT22;6042;41.326;19.826;2023-03-20T14:12:01;17.10;99.90
11965;DHT22;6042;41.326;19.826;2023-03-20T14:14:32;17.10;99.90
11965;DHT22;6042;41.326;19.826;2023-03-20T14:17:13;17.10;99.90
11965;DHT22;6042;41.326;19.826;2023-03-20T14:19:45;17.20;99.90
11965;DHT22;6042;41.326;19.826;2023-03-20T14:22:17;17.30;99.90
11965;DHT22;6042;41.326;19.826;2023-03-20T14:24:55;17.40;99.90
11965;DHT22;6042;41.326;19.826;2023-03-20T14:27:25;17.60;99.90
11965;DHT22;6042;41.326;19.826;2023-03-20T14:30:41;17.50;99.90
11965;DHT22;6042;41.326;19.826;2023-03-20T14:33:26;17.40;99.90
11965;DHT22;6042;41.326;19.826;2023-03-20T14:36:18;17.30;99.90
11965;DHT22;6042;41.326;19.826;2023-03-20T14:39:01;17.10;99.90
11965;DHT22;6042;41.326;19.826;2023-03-20T14:41:39;16.90;99.90
11965;DHT22;6042;41.326;19.826;2023-03-20T14:44:22;16.80;99.90
11965;DHT22;6042;41.326;19.826;2023-03-20T14:46:56;16.70;99.90
11965;DHT22;6042;41.326;19.826;2023-03-20T14:49:45;16.70;99.90
11965;DHT22;6042;41.326;19.826;2023-03-20T14:52:30;16.70;99.90
11965;DHT22;6042;41.326;19.826;2023-03-20T14:55:30;16.40;99.90
11965;DHT22;6042;41.326;19.826;2023-03-20T14:58:04;16.30;99.90
11965;DHT22;6042;41.326;19.826;2023-03-20T15:00:43;16.10;99.90
11965;DHT22;6042;41.326;19.826;2023-03-20T15:03:15;16.10;99.90
11965;DHT22;6042;41.326;19.826;2023-03-20T15:05:46;16.20;99.90
11965;DHT22;6042;41.326;19.826;2023-03-20T15:08:19;16.30;99.90
11965;DHT22;6042;41.326;19.826;2023-03-20T15:10:51;16.20;99.90
11965;DHT22;6042;41.326;19.826;2023-03-20T15:13:21;16.20;99.90
11965;DHT22;6042;41.326;19.826;2023-03-20T15:15:52;16.10;99.90
11965;DHT22;6042;41.326;19.826;2023-03-20T15:18:23;16.10;99.90
11965;DHT22;6042;41.326;19.826;2023-03-20T15:20:54;16.10;99.90
11965;DHT22;6042;41.326;19.826;2023-03-20T15:23:23;16.10;99.90
11965;DHT22;6042;41.326;19.826;2023-03-20T15:25:53;16.20;99.90
11965;DHT22;6042;41.326;19.826;2023-03-20T15:28:23;16.10;99.90
11965;DHT22;6042;41.326;19.826;2023-03-20T15:30:55;16.00;99.90
11965;DHT22;6042;41.326;19.826;2023-03-20T15:33:26;16.10;99.90
11965;DHT22;6042;41.326;19.826;2023-03-20T15:35:56;15.80;99.90
11965;DHT22;6042;41.326;19.826;2023-03-20T15:38:29;15.70;99.90
11965;DHT22;6042;41.326;19.826;2023-03-20T15:41:03;15.70;99.90
11965;DHT22;6042;41.326;19.826;2023-03-20T15:43:33;15.70;99.90
11965;DHT22;6042;41.326;19.826;2023-03-20T15:46:04;15.70;99.90
11965;DHT22;6042;41.326;19.826;2023-03-20T15:48:47;15.60;99.90
11965;DHT22;6042;41.326;19.826;2023-03-20T15:51:25;15.60;99.90
11965;DHT22;6042;41.326;19.826;2023-03-20T15:53:54;15.60;99.90
11965;DHT22;6042;41.326;19.826;2023-03-20T15:56:25;15.60;99.90
11965;DHT22;6042;41.326;19.826;2023-03-20T15:58:55;15.60;99.90
11965;DHT22;6042;41.326;19.826;2023-03-20T16:01:25;15.60;99.90
11965;DHT22;6042;41.326;19.826;2023-03-20T16:03:56;15.40;99.90
11965;DHT22;6042;41.326;19.826;2023-03-20T16:06:27;15.50;99.90
11965;DHT22;6042;41.326;19.826;2023-03-20T16:08:58;15.50;99.90
11965;DHT22;6042;41.326;19.826;2023-03-20T16:11:38;15.40;99.90
11965;DHT22;6042;41.326;19.826;2023-03-20T16:14:12;15.40;99.90
11965;DHT22;6042;41.326;19.826;2023-03-20T16:16:41;15.40;99.90
11965;DHT22;6042;41.326;19.826;2023-03-20T16:19:11;15.40;99.90
11965;DHT22;6042;41.326;19.826;2023-03-20T16:21:46;15.30;99.90
11965;DHT22;6042;41.326;19.826;2023-03-20T16:24:18;15.30;99.90
11965;DHT22;6042;41.326;19.826;2023-03-20T16:26:50;15.20;99.90
11965;DHT22;6042;41.326;19.826;2023-03-20T16:29:21;15.20;99.90
11965;DHT22;6042;41.326;19.826;2023-03-20T16:31:55;15.30;99.90
11965;DHT22;6042;41.326;19.826;2023-03-20T16:34:29;15.20;99.90
11965;DHT22;6042;41.326;19.826;2023-03-20T16:37:02;15.20;99.90
11965;DHT22;6042;41.326;19.826;2023-03-20T16:39:33;15.20;99.90
11965;DHT22;6042;41.326;19.826;2023-03-20T16:42:21;15.20;99.90